Time;durP1;ratioP1;P1;durP2;ratioP2;P2;SDS_P1;SDS_P2;PMS_P1;PMS_P2;Temp;Humidity;BMP_temperature;BMP_pressure;BME280_temperature;BME280_humidity;BME280_pressure;Samples;Min_cycle;Max_cycle;Signal;HPM_P1;HPM_P2
2022/07/07 00:02:15;;;;;;;4.03;1.80;;;;;;;13.51;75.81;96800.41;5033218;28;20464;-72
2022/07/07 00:04:43;;;;;;;2.40;1.60;;;;;;;13.39;75.45;96789.00;5033422;28;20465;-72
2022/07/07 00:07:09;;;;;;;1.50;1.40;;;;;;;13.74;74.25;96821.16;5033508;28;20480;-72
2022/07/07 00:09:37;;;;;;;11.13;2.00;;;;;;;13.65;75.73;96820.53;5051219;28;20469;-72
2022/07/07 00:12:04;;;;;;;1.50;1.40;;;;;;;12.74;77.74;96741.03;5016270;28;20446;-72
2022/07/07 00:14:31;;;;;;;2.70;1.83;;;;;;;13.56;74.69;96799.38;5033259;28;20449;-72
2022/07/07 00:16:58;;;;;;;1.60;1.50;;;;;;;13.75;73.33;96820.06;5051084;28;20980;-72
2022/07/07 00:19:25;;;;;;;5.33;2.10;;;;;;;13.75;73.79;96826.16;5033350;28;20512;-72
2022/07/07 00:21:52;;;;;;;3.27;2.30;;;;;;;13.51;75.81;96819.00;5033029;28;20472;-72
2022/07/07 00:24:19;;;;;;;3.53;2.10;;;;;;;13.31;75.60;96782.69;5032464;28;20464;-72
2022/07/07 00:26:45;;;;;;;4.30;2.13;;;;;;;13.40;75.13;96771.94;5051222;28;20488;-71
2022/07/07 00:29:12;;;;;;;2.13;1.67;;;;;;;13.72;73.42;96808.22;5066108;28;20481;-71
2022/07/07 00:31:39;;;;;;;5.13;2.00;;;;;;;13.77;72.59;96801.94;5029753;28;20438;-71
2022/07/07 00:34:05;;;;;;;3.83;1.40;;;;;;;13.47;74.48;96775.59;5023375;28;20433;-72
2022/07/07 00:36:32;;;;;;;1.57;1.47;;;;;;;13.59;74.00;96780.13;5032929;28;20569;-72
2022/07/07 00:38:59;;;;;;;3.00;1.30;;;;;;;13.52;75.30;96761.31;5051012;28;20483;-71
2022/07/07 00:41:26;;;;;;;4.10;1.97;;;;;;;13.59;77.41;96802.13;5049330;28;20480;-72
2022/07/07 00:43:52;;;;;;;1.97;1.57;;;;;;;13.47;76.87;96766.84;5050947;28;20430;-72
2022/07/07 00:46:20;;;;;;;3.73;2.27;;;;;;;13.60;74.32;96771.03;5032668;28;20821;-71
2022/07/07 00:48:47;;;;;;;1.60;1.50;;;;;;;13.59;76.92;96775.56;5033017;28;20477;-72
2022/07/07 00:51:14;;;;;;;2.33;1.70;;;;;;;13.19;79.63;96775.47;5016634;28;20525;-72
2022/07/07 00:53:41;;;;;;;3.20;1.77;;;;;;;13.24;79.90;96767.31;5049219;28;20441;-72
2022/07/07 00:56:08;;;;;;;1.90;1.70;;;;;;;13.36;79.77;96792.31;5050488;28;20806;-72
2022/07/07 00:58:35;;;;;;;1.70;1.60;;;;;;;13.23;81.25;96762.34;5032926;28;21000;-72
2022/07/07 01:01:03;;;;;;;3.10;1.80;;;;;;;13.50;80.16;96785.56;5047660;28;20966;-72
2022/07/07 01:03:30;;;;;;;3.00;1.50;;;;;;;13.56;79.58;96783.44;5050715;28;20512;-72
2022/07/07 01:05:58;;;;;;;1.60;1.50;;;;;;;13.56;78.98;96776.25;5032626;28;20453;-71
2022/07/07 01:08:26;;;;;;;2.83;1.97;;;;;;;13.56;80.03;96781.56;5032920;28;20445;-72
2022/07/07 01:10:53;;;;;;;2.10;1.63;;;;;;;13.77;80.12;96772.69;5016043;28;20438;-72
2022/07/07 01:13:20;;;;;;;3.60;2.00;;;;;;;13.52;78.60;96745.38;5032762;28;20446;-72
2022/07/07 01:15:47;;;;;;;2.17;1.40;;;;;;;13.50;79.65;96782.91;5032460;28;20465;-71
2022/07/07 01:18:14;;;;;;;4.83;1.63;;;;;;;13.71;76.00;96784.63;5032514;28;20464;-72
2022/07/07 01:20:46;;;;;;;3.97;1.93;;;;;;;14.03;71.97;96782.94;5050595;28;20425;-72
2022/07/07 01:23:14;;;;;;;4.03;1.80;;;;;;;13.96;70.72;96772.84;5032892;28;21008;-72
2022/07/07 01:25:42;;;;;;;4.80;1.90;;;;;;;13.95;75.14;96781.94;5041684;28;20526;-72
2022/07/07 01:28:09;;;;;;;3.57;1.83;;;;;;;13.70;77.43;96754.63;5008062;28;20505;-71
2022/07/07 01:30:36;;;;;;;3.50;2.23;;;;;;;13.57;77.42;96729.19;5032615;28;20555;-72
2022/07/07 01:33:03;;;;;;;3.73;1.80;;;;;;;13.90;74.16;96763.56;5013883;28;20442;-72
2022/07/07 01:35:30;;;;;;;1.70;1.60;;;;;;;13.93;73.18;96746.94;5034658;28;20465;-72
2022/07/07 01:37:56;;;;;;;1.80;1.70;;;;;;;13.96;72.90;96734.84;5053928;28;20882;-72
2022/07/07 01:40:23;;;;;;;3.43;2.00;;;;;;;14.03;75.76;96762.44;5053987;28;20433;-72
2022/07/07 01:42:50;;;;;;;9.70;2.13;;;;;;;13.81;75.85;96736.34;5036154;28;20467;-71
2022/07/07 01:45:16;;;;;;;3.97;1.60;;;;;;;13.48;79.28;96725.88;5053466;28;20434;-71
2022/07/07 01:47:43;;;;;;;2.77;1.93;;;;;;;13.72;79.58;96760.38;5035725;28;20484;-72
2022/07/07 01:50:10;;;;;;;6.23;1.90;;;;;;;13.71;78.83;96726.19;5052797;28;20480;-71
2022/07/07 01:52:37;;;;;;;8.70;2.40;;;;;;;13.49;80.03;96714.94;5053678;28;20517;-72
2022/07/07 01:55:04;;;;;;;7.17;2.03;;;;;;;13.58;80.86;96744.03;5035552;28;20516;-71
2022/07/07 01:57:31;;;;;;;5.63;2.00;;;;;;;13.37;82.33;96708.88;5053186;28;20540;-71
2022/07/07 01:59:58;;;;;;;4.53;1.90;;;;;;;13.10;86.53;96740.28;5035804;28;20520;-71
2022/07/07 02:02:24;;;;;;;3.97;1.97;;;;;;;12.95;87.21;96709.88;5035657;28;20482;-72
2022/07/07 02:04:51;;;;;;;8.47;2.00;;;;;;;13.29;85.21;96718.50;5053318;28;20425;-71
2022/07/07 02:07:18;;;;;;;4.33;2.30;;;;;;;13.32;85.14;96734.53;5018956;28;20457;-71
2022/07/07 02:09:45;;;;;;;3.77;2.27;;;;;;;13.47;85.29;96737.63;5053332;28;20528;-72
2022/07/07 02:12:11;;;;;;;6.40;1.80;;;;;;;13.49;87.37;96741.50;5035160;28;20949;-72
2022/07/07 02:14:38;;;;;;;4.43;2.67;;;;;;;13.45;89.20;96729.22;5035261;28;20537;-72
2022/07/07 02:17:05;;;;;;;2.63;2.00;;;;;;;13.38;88.80;96731.66;5035112;28;20509;-72
2022/07/07 02:19:31;;;;;;;2.80;1.90;;;;;;;13.34;89.00;96736.09;5053269;28;20452;-72
2022/07/07 02:21:58;;;;;;;7.43;2.07;;;;;;;12.95;88.96;96701.09;5048622;28;20476;-72
2022/07/07 02:24:25;;;;;;;3.60;2.23;;;;;;;13.34;87.43;96701.56;5035456;28;20464;-72
2022/07/07 02:26:51;;;;;;;2.57;2.10;;;;;;;13.28;89.17;96736.31;5035025;28;20468;-72
2022/07/07 02:29:18;;;;;;;4.57;2.67;;;;;;;13.18;94.03;96715.50;5052934;28;20520;-72
2022/07/07 02:31:45;;;;;;;3.60;2.40;;;;;;;13.03;93.77;96693.03;5035337;28;20857;-72
2022/07/07 02:34:12;;;;;;;2.77;1.83;;;;;;;12.95;96.29;96732.94;5035127;28;20521;-72
2022/07/07 02:36:39;;;;;;;6.57;3.00;;;;;;;13.01;97.47;96734.28;5034789;28;20995;-72
2022/07/07 02:39:06;;;;;;;2.30;2.10;;;;;;;13.12;96.85;96742.59;5052878;28;20436;-72
2022/07/07 02:41:33;;;;;;;4.23;2.77;;;;;;;13.24;95.22;96726.69;5052765;28;20468;-72
2022/07/07 02:43:59;;;;;;;4.10;2.20;;;;;;;13.41;93.06;96718.50;5035073;28;20461;-72
2022/07/07 02:46:28;;;;;;;5.97;2.53;;;;;;;13.46;93.47;96720.91;5030419;28;20895;-72
2022/07/07 02:48:55;;;;;;;8.10;3.03;;;;;;;13.59;93.60;96708.38;5043682;28;20477;-72
2022/07/07 02:51:22;;;;;;;3.77;2.33;;;;;;;13.74;93.89;96710.31;5034708;28;20476;-72
2022/07/07 02:53:48;;;;;;;2.90;2.40;;;;;;;13.66;94.87;96731.72;5034671;28;20972;-72
2022/07/07 02:56:15;;;;;;;3.43;2.00;;;;;;;13.53;95.47;96693.78;5018340;28;20540;-72
2022/07/07 02:58:42;;;;;;;3.67;2.63;;;;;;;13.58;95.92;96720.13;5064901;28;20848;-72
2022/07/07 03:01:08;;;;;;;10.83;2.50;;;;;;;13.37;96.51;96701.69;5053014;28;21003;-72
2022/07/07 03:03:36;;;;;;;2.90;2.10;;;;;;;13.48;100.00;96723.22;5034459;28;20440;-72
2022/07/07 03:06:04;;;;;;;4.87;2.20;;;;;;;13.39;98.94;96722.59;5067389;28;20465;-72
2022/07/07 03:08:31;;;;;;;4.80;1.90;;;;;;;13.58;98.01;96722.78;5050452;28;20951;-72
2022/07/07 03:10:59;;;;;;;3.83;2.07;;;;;;;13.73;96.76;96721.28;5034259;28;20445;-72
2022/07/07 03:13:26;;;;;;;5.67;3.67;;;;;;;13.90;95.02;96729.78;5034352;28;20929;-72
2022/07/07 03:15:54;;;;;;;3.47;2.37;;;;;;;13.10;98.80;96683.75;5017745;28;20461;-72
2022/07/07 03:18:21;;;;;;;3.57;2.80;;;;;;;13.18;99.77;96690.81;5033890;28;20814;-72
2022/07/07 03:20:47;;;;;;;5.90;2.07;;;;;;;13.46;97.68;96712.94;5050788;28;20442;-72
2022/07/07 03:23:14;;;;;;;2.70;2.20;;;;;;;13.49;97.80;96724.81;5050570;28;20922;-72
2022/07/07 03:25:41;;;;;;;5.10;2.73;;;;;;;13.18;99.41;96706.75;5050666;28;20492;-72
2022/07/07 03:28:08;;;;;;;4.03;2.63;;;;;;;13.36;99.23;96726.69;5066959;28;20510;-72
2022/07/07 03:30:34;;;;;;;3.90;2.00;;;;;;;13.35;99.06;96714.50;5034070;28;20929;-72
2022/07/07 03:33:01;;;;;;;2.70;2.50;;;;;;;13.47;98.02;96724.34;5034023;28;20437;-72
2022/07/07 03:35:28;;;;;;;5.10;3.27;;;;;;;13.39;97.19;96704.78;5033706;28;20461;-72
2022/07/07 03:37:54;;;;;;;4.90;1.90;;;;;;;13.47;95.86;96697.78;5033389;28;20449;-72
2022/07/07 03:40:21;;;;;;;5.90;2.60;;;;;;;13.35;93.30;96695.91;5030696;28;20899;-71
2022/07/07 03:42:48;;;;;;;1.83;1.73;;;;;;;13.68;93.94;96724.97;5015525;28;20501;-72
2022/07/07 03:45:14;;;;;;;1.93;1.83;;;;;;;13.63;92.79;96695.22;5066707;28;20445;-72
2022/07/07 03:47:41;;;;;;;4.53;2.20;;;;;;;13.83;91.18;96723.50;5051368;28;20477;-72
2022/07/07 03:50:08;;;;;;;4.70;2.10;;;;;;;13.83;91.06;96729.56;5051526;28;20434;-72
2022/07/07 03:52:35;;;;;;;4.53;2.17;;;;;;;13.94;89.36;96723.78;5033493;28;20477;-72
2022/07/07 03:55:02;;;;;;;3.27;1.80;;;;;;;13.88;85.59;96694.78;5051239;28;20476;-72
2022/07/07 03:57:29;;;;;;;2.23;1.93;;;;;;;13.88;83.94;96684.13;5033063;28;20453;-71
2022/07/07 03:59:55;;;;;;;4.40;1.87;;;;;;;14.11;80.82;96703.00;5016618;28;20465;-72
2022/07/07 04:02:22;;;;;;;1.67;1.57;;;;;;;13.93;79.97;96703.63;5033504;28;20517;-72
2022/07/07 04:04:49;;;;;;;3.43;1.63;;;;;;;13.64;81.81;96699.41;5049635;28;20445;-72
2022/07/07 04:07:16;;;;;;;4.37;1.83;;;;;;;13.82;82.26;96712.09;5016830;28;20477;-72
2022/07/07 04:09:43;;;;;;;2.70;2.30;;;;;;;13.44;83.08;96677.19;5033154;28;20984;-72
2022/07/07 04:12:10;;;;;;;2.37;1.77;;;;;;;13.69;83.58;96699.16;5049824;28;20499;-72
2022/07/07 04:14:37;;;;;;;2.00;1.80;;;;;;;13.87;82.95;96708.41;5016815;28;20499;-73
2022/07/07 04:17:04;;;;;;;2.47;1.90;;;;;;;13.64;83.03;96667.53;5050903;28;20833;-72
2022/07/07 04:19:31;;;;;;;5.10;2.07;;;;;;;13.84;84.36;96711.75;5033461;28;20940;-72
2022/07/07 04:21:57;;;;;;;4.70;2.23;;;;;;;13.41;87.64;96678.66;5033121;28;20420;-72
2022/07/07 04:24:24;;;;;;;7.00;2.83;;;;;;;13.52;86.22;96677.06;5032894;28;20441;-71
2022/07/07 04:26:51;;;;;;;2.40;1.83;;;;;;;13.50;89.00;96681.19;5032887;28;20458;-72
2022/07/07 04:29:17;;;;;;;6.10;2.67;;;;;;;13.31;91.70;96677.22;5050823;28;20445;-73
2022/07/07 04:31:52;;;;;;;4.67;2.47;;;;;;;13.48;91.70;96694.00;5017787;28;20444;-71
2022/07/07 04:34:22;;;;;;;5.93;3.10;;;;;;;13.23;91.18;96650.81;5050752;28;20417;-72
2022/07/07 04:36:49;;;;;;;6.10;3.10;;;;;;;13.65;90.75;96695.66;5032582;28;20484;-72
2022/07/07 04:39:15;;;;;;;4.73;1.70;;;;;;;13.71;85.76;96665.06;5042532;28;20428;-72
2022/07/07 04:41:42;;;;;;;5.17;2.03;;;;;;;13.80;84.60;96681.63;5032843;28;20510;-72
2022/07/07 04:44:09;;;;;;;2.67;1.70;;;;;;;13.83;84.10;96695.03;5032899;28;20437;-73
2022/07/07 04:46:35;;;;;;;2.30;2.10;;;;;;;13.68;83.96;96692.31;5049098;28;20457;-72
2022/07/07 04:49:02;;;;;;;3.97;2.77;;;;;;;13.58;84.22;96696.97;5016520;28;20496;-71
2022/07/07 04:51:29;;;;;;;2.80;2.00;;;;;;;13.51;84.81;96693.34;5050747;28;20433;-72
2022/07/07 04:53:56;;;;;;;3.70;2.33;;;;;;;13.59;89.72;96661.31;5050673;28;20421;-72
2022/07/07 04:56:23;;;;;;;3.70;2.60;;;;;;;13.83;84.02;96686.28;5050501;28;20515;-72
2022/07/07 04:58:49;;;;;;;2.30;2.10;;;;;;;13.77;88.33;96679.66;5032433;28;20491;-73
2022/07/07 05:01:16;;;;;;;3.90;2.17;;;;;;;13.74;91.16;96672.34;5032553;28;20525;-73
2022/07/07 05:03:43;;;;;;;7.80;3.37;;;;;;;13.54;91.03;96664.22;5032550;28;20444;-73
2022/07/07 05:06:10;;;;;;;2.60;2.10;;;;;;;14.28;86.87;96690.50;5032278;28;20859;-73
2022/07/07 05:08:38;;;;;;;3.30;2.20;;;;;;;14.12;84.25;96675.28;5048961;28;20441;-73
2022/07/07 05:11:05;;;;;;;4.60;2.63;;;;;;;14.15;86.11;96709.19;5035904;28;20437;-72
2022/07/07 05:13:32;;;;;;;2.20;1.77;;;;;;;14.19;85.93;96688.78;5054368;28;20425;-73
2022/07/07 05:15:58;;;;;;;4.47;2.30;;;;;;;14.61;82.19;96699.00;5069741;28;20453;-73
2022/07/07 05:18:25;;;;;;;4.57;2.37;;;;;;;14.46;81.84;96699.75;5036427;28;21013;-73
2022/07/07 05:20:52;;;;;;;3.67;2.27;;;;;;;14.43;82.18;96703.06;5036337;28;20962;-73
2022/07/07 05:23:19;;;;;;;4.10;2.50;;;;;;;14.28;84.83;96701.13;5036248;28;20473;-73
2022/07/07 05:25:46;;;;;;;8.30;2.40;;;;;;;14.15;84.53;96674.59;5036416;28;20433;-72
2022/07/07 05:28:12;;;;;;;4.53;2.90;;;;;;;13.88;86.79;96656.78;5035964;28;20531;-72
2022/07/07 05:30:39;;;;;;;3.43;2.00;;;;;;;14.23;85.04;96696.84;5036206;28;21023;-73
2022/07/07 05:33:07;;;;;;;7.57;2.40;;;;;;;14.31;85.43;96690.63;5054075;28;20429;-73
2022/07/07 05:35:35;;;;;;;5.00;2.37;;;;;;;14.11;82.85;96657.78;5036057;28;20433;-73
2022/07/07 05:38:03;;;;;;;5.37;2.43;;;;;;;13.89;86.94;96661.78;5052810;28;20489;-73
2022/07/07 05:40:30;;;;;;;9.73;3.03;;;;;;;13.89;89.13;96688.38;5036820;28;20441;-72
2022/07/07 05:42:57;;;;;;;11.30;4.00;;;;;;;14.09;83.39;96669.88;5036286;28;20457;-71
2022/07/07 05:45:23;;;;;;;4.63;2.80;;;;;;;14.19;82.53;96702.09;5053799;28;20429;-71
2022/07/07 05:47:50;;;;;;;9.50;3.17;;;;;;;14.06;83.59;96678.56;5019543;28;20545;-71
2022/07/07 05:50:17;;;;;;;8.47;3.43;;;;;;;14.04;83.79;96683.44;5035786;28;20457;-71
2022/07/07 05:52:43;;;;;;;6.53;3.00;;;;;;;14.08;84.38;96693.03;5035825;28;20933;-71
2022/07/07 05:55:10;;;;;;;5.83;2.90;;;;;;;14.04;84.76;96683.44;5019076;28;20441;-71
2022/07/07 05:57:37;;;;;;;3.60;2.30;;;;;;;14.21;84.56;96696.41;5035540;28;20535;-71
2022/07/07 06:00:05;;;;;;;9.50;3.97;;;;;;;14.00;86.93;96691.28;5053643;28;20484;-71
2022/07/07 06:02:37;;;;;;;4.20;2.50;;;;;;;14.35;83.23;96702.09;5053373;28;20424;-72
2022/07/07 06:05:05;;;;;;;6.33;2.10;;;;;;;14.22;84.07;96700.63;5035936;28;20465;-71
2022/07/07 06:07:32;;;;;;;5.07;2.30;;;;;;;14.34;83.27;96699.78;5053415;28;20450;-72
2022/07/07 06:09:59;;;;;;;3.20;1.90;;;;;;;14.40;83.60;96698.41;5035634;28;20516;-72
2022/07/07 06:12:26;;;;;;;2.80;2.07;;;;;;;14.61;81.74;96695.56;5053470;28;20991;-72
2022/07/07 06:14:52;;;;;;;4.70;1.83;;;;;;;14.56;82.38;96693.94;5035538;28;20437;-71
2022/07/07 06:17:19;;;;;;;5.67;3.03;;;;;;;14.47;82.25;96661.38;5035153;28;20505;-71
2022/07/07 06:20:06;;;;;;;5.30;1.90;;;;;;;14.77;80.19;96685.69;5053222;28;20516;-71
2022/07/07 06:22:33;;;;;;;3.03;2.20;;;;;;;14.75;78.79;96693.25;5052180;28;20464;-72
2022/07/07 06:25:00;;;;;;;2.40;1.83;;;;;;;14.76;77.38;96682.25;5051839;28;20438;-71
2022/07/07 06:27:26;;;;;;;3.00;1.70;;;;;;;14.62;77.82;96662.50;5035045;28;20507;-72
2022/07/07 06:29:55;;;;;;;3.80;1.70;;;;;;;14.57;76.75;96649.47;5035496;28;21431;-71
2022/07/07 06:32:22;;;;;;;5.00;2.13;;;;;;;14.94;75.66;96690.66;5035321;28;20925;-71
2022/07/07 06:34:49;;;;;;;3.80;2.10;;;;;;;14.86;75.71;96674.88;5035012;28;20473;-71
2022/07/07 06:37:16;;;;;;;7.90;2.43;;;;;;;14.75;75.45;96662.06;5034806;28;20512;-71
2022/07/07 06:39:42;;;;;;;4.50;2.40;;;;;;;14.96;75.00;96677.78;5034891;28;20461;-71
2022/07/07 06:42:09;;;;;;;3.30;2.00;;;;;;;14.90;75.17;96665.84;5035341;28;20484;-72
2022/07/07 06:44:40;;;;;;;1.90;1.80;;;;;;;14.97;75.76;96668.69;5035381;28;20449;-71
2022/07/07 06:47:07;;;;;;;3.10;1.57;;;;;;;15.06;76.11;96671.91;5035449;28;20499;-71
2022/07/07 06:49:33;;;;;;;5.40;2.20;;;;;;;15.10;74.46;96656.03;5035120;28;20819;-71
2022/07/07 06:52:00;;;;;;;3.90;2.40;;;;;;;15.02;73.88;96656.97;5018460;28;20437;-71
2022/07/07 06:54:28;;;;;;;6.10;2.10;;;;;;;15.01;74.51;96655.44;5051365;28;20811;-71
2022/07/07 06:56:54;;;;;;;5.70;1.67;;;;;;;15.11;75.00;96668.22;5033925;28;20508;-70
2022/07/07 06:59:21;;;;;;;3.50;1.77;;;;;;;15.24;73.89;96687.53;5034543;28;20469;-71
2022/07/07 07:01:48;;;;;;;2.50;1.73;;;;;;;15.03;73.82;96656.63;5018204;28;20488;-71
2022/07/07 07:04:15;;;;;;;1.97;1.80;;;;;;;15.30;73.34;96692.25;5034677;28;20476;-71
2022/07/07 07:06:42;;;;;;;6.73;1.90;;;;;;;15.05;74.03;96665.03;5034446;28;20465;-71
2022/07/07 07:09:09;;;;;;;4.30;2.37;;;;;;;15.01;78.03;96684.72;5034505;28;20536;-72
2022/07/07 07:11:36;;;;;;;2.63;2.10;;;;;;;15.04;76.14;96695.47;5052175;28;20529;-71
2022/07/07 07:14:04;;;;;;;3.80;1.90;;;;;;;14.92;77.19;96689.47;5034573;28;20528;-71
2022/07/07 07:16:31;;;;;;;2.37;1.70;;;;;;;15.01;77.65;96687.41;5034300;28;20519;-71
2022/07/07 07:18:58;;;;;;;2.67;2.07;;;;;;;15.37;73.89;96695.06;5034017;28;20448;-71
2022/07/07 07:21:25;;;;;;;8.80;2.20;;;;;;;15.40;73.52;96693.59;5034240;28;20522;-71
2022/07/07 07:23:52;;;;;;;2.73;1.97;;;;;;;15.37;72.96;96692.41;5033897;28;20488;-70
2022/07/07 07:26:18;;;;;;;4.80;2.40;;;;;;;15.24;73.46;96696.31;5034036;28;20909;-71
2022/07/07 07:28:45;;;;;;;5.60;2.70;;;;;;;15.20;75.65;96700.75;5051704;28;20445;-71
2022/07/07 07:31:12;;;;;;;2.50;1.87;;;;;;;15.18;74.45;96679.03;5034083;28;20443;-71
2022/07/07 07:33:38;;;;;;;14.40;2.73;;;;;;;15.28;74.13;96691.03;5034031;28;20825;-71
2022/07/07 07:36:08;;;;;;;6.10;3.30;;;;;;;14.77;82.06;96689.13;5033844;28;20465;-71
2022/07/07 07:38:37;;;;;;;3.70;2.00;;;;;;;14.86;80.45;96667.66;5038108;28;20952;-71
2022/07/07 07:41:09;;;;;;;3.70;2.00;;;;;;;14.82;80.75;96703.28;5051853;28;20429;-71
2022/07/07 07:43:36;;;;;;;7.30;2.50;;;;;;;14.83;79.81;96691.53;5050477;28;20445;-71
2022/07/07 07:46:07;;;;;;;5.97;3.17;;;;;;;15.18;79.09;96694.25;5032817;28;20426;-71
2022/07/07 07:48:34;;;;;;;5.33;2.80;;;;;;;15.44;77.38;96686.44;5033715;28;20441;-71
2022/07/07 07:51:01;;;;;;;4.30;2.43;;;;;;;15.51;75.74;96693.81;5033853;28;20486;-71
2022/07/07 07:53:27;;;;;;;7.40;2.73;;;;;;;15.53;76.46;96697.69;5033827;28;20472;-72
2022/07/07 07:55:55;;;;;;;5.80;2.63;;;;;;;15.37;77.44;96691.63;5049996;28;20441;-72
2022/07/07 07:58:22;;;;;;;2.50;2.00;;;;;;;15.38;77.06;96685.97;5016936;28;20473;-71
2022/07/07 08:00:48;;;;;;;5.87;2.20;;;;;;;15.23;81.14;96686.75;5033326;28;20444;-72
2022/07/07 08:03:15;;;;;;;5.77;2.30;;;;;;;15.46;79.53;96697.53;5051515;28;20809;-72
2022/07/07 08:05:42;;;;;;;5.63;2.40;;;;;;;15.11;89.85;96718.06;5051448;28;20429;-71
2022/07/07 08:08:14;;;;;;;7.60;2.20;;;;;;;14.79;97.64;96676.22;5049809;28;20457;-72
2022/07/07 08:10:40;;;;;;;4.40;2.60;;;;;;;14.73;99.62;96682.19;5033327;28;20520;-71
2022/07/07 08:13:07;;;;;;;3.93;2.53;;;;;;;14.77;100.00;96702.44;5049951;28;20442;-72
2022/07/07 08:15:34;;;;;;;3.87;2.40;;;;;;;14.63;100.00;96699.41;5033229;28;20443;-71
2022/07/07 08:18:00;;;;;;;5.50;3.60;;;;;;;14.35;100.00;96696.78;5033088;28;20493;-72
2022/07/07 08:20:27;;;;;;;8.13;2.80;;;;;;;14.32;100.00;96651.47;5033487;28;20422;-72
2022/07/07 08:22:54;;;;;;;7.03;3.30;;;;;;;14.62;100.00;96691.78;5033787;28;20484;-72
2022/07/07 08:25:21;;;;;;;9.43;3.00;;;;;;;15.02;100.00;96689.72;5032870;28;21010;-72
2022/07/07 08:27:48;;;;;;;4.77;4.30;;;;;;;14.79;100.00;96662.91;5032669;28;20488;-71
2022/07/07 08:30:14;;;;;;;4.73;4.33;;;;;;;14.77;100.00;96665.16;5051371;28;20461;-71
2022/07/07 08:32:44;;;;;;;8.00;4.80;;;;;;;14.83;100.00;96667.59;5033491;28;20449;-71
2022/07/07 08:35:13;;;;;;;4.27;3.63;;;;;;;14.94;100.00;96690.66;5050448;28;20893;-71
2022/07/07 08:37:39;;;;;;;3.50;3.20;;;;;;;14.96;100.00;96688.44;5033273;28;21050;-71
2022/07/07 08:40:06;;;;;;;4.57;3.70;;;;;;;14.94;97.84;96682.66;5038009;28;20500;-71
2022/07/07 08:42:38;;;;;;;4.13;3.63;;;;;;;15.02;100.00;96691.59;5049879;28;20465;-71
2022/07/07 08:45:05;;;;;;;3.77;3.37;;;;;;;14.90;97.80;96679.16;5033838;28;20808;-71
2022/07/07 08:47:32;;;;;;;6.40;3.53;;;;;;;14.89;97.58;96671.50;5067699;28;20852;-71
2022/07/07 08:49:59;;;;;;;5.93;3.37;;;;;;;14.82;97.35;96652.69;5040181;28;20443;-71
2022/07/07 08:52:27;;;;;;;4.10;3.70;;;;;;;14.76;96.58;96665.50;5039971;28;20441;-71
2022/07/07 08:54:56;;;;;;;4.00;2.97;;;;;;;14.56;100.00;96671.88;5057837;28;20433;-70
2022/07/07 08:57:24;;;;;;;4.77;4.27;;;;;;;14.43;100.00;96676.47;5039820;28;20556;-72
2022/07/07 08:59:56;;;;;;;3.87;3.00;;;;;;;14.32;100.00;96692.16;5057735;28;20433;-72
2022/07/07 09:02:24;;;;;;;3.90;3.60;;;;;;;14.30;100.00;96697.06;5038901;28;20826;-71
2022/07/07 09:04:52;;;;;;;4.07;3.70;;;;;;;14.11;100.00;96696.91;5057775;28;20846;-71
2022/07/07 09:07:19;;;;;;;5.07;4.70;;;;;;;14.07;100.00;96690.72;5057554;28;20518;-72
2022/07/07 09:09:52;;;;;;;5.03;4.10;;;;;;;14.02;100.00;96701.59;5039474;28;20952;-72
2022/07/07 09:12:20;;;;;;;6.17;4.47;;;;;;;13.72;100.00;96674.56;5039284;28;20473;-71
2022/07/07 09:14:49;;;;;;;4.80;4.40;;;;;;;13.84;100.00;96698.44;5039452;28;20429;-72
2022/07/07 09:17:28;;;;;;;4.83;4.43;;;;;;;13.71;100.00;96700.38;5039173;28;20494;-71
2022/07/07 09:20:11;;;;;;;7.07;5.10;;;;;;;13.73;100.00;96708.78;5039434;28;20521;-71
2022/07/07 09:22:44;;;;;;;9.17;5.50;;;;;;;13.58;100.00;96712.91;5039374;28;20437;-72
2022/07/07 09:25:11;;;;;;;5.33;4.83;;;;;;;13.78;100.00;96713.09;5057223;28;20421;-71
2022/07/07 09:28:02;;;;;;;6.63;5.80;;;;;;;13.84;100.00;96703.78;5039000;28;20541;-72
2022/07/07 09:30:32;;;;;;;6.17;5.57;;;;;;;14.07;100.00;96714.66;5039375;28;20449;-72
2022/07/07 09:33:05;;;;;;;6.57;5.50;;;;;;;14.02;100.00;96693.63;5072758;28;20995;-72
2022/07/07 09:38:22;;;;;;;9.87;5.33;;;;;;;14.31;100.00;96709.22;5040747;28;20968;-72
2022/07/07 09:41:17;;;;;;;6.77;6.17;;;;;;;14.44;100.00;96707.31;5072444;28;20437;-72
2022/07/07 09:43:48;;;;;;;8.23;6.53;;;;;;;14.43;100.00;96709.19;5039177;28;20496;-72
2022/07/07 09:46:21;;;;;;;6.00;5.50;;;;;;;14.11;100.00;96703.00;5038708;28;20960;-72
2022/07/07 09:48:56;;;;;;;16.03;6.10;;;;;;;14.12;100.00;96704.53;5039225;28;20825;-72
2022/07/07 09:51:32;;;;;;;10.33;6.40;;;;;;;13.97;100.00;96702.63;5039148;28;21015;-72
2022/07/07 09:54:14;;;;;;;6.60;6.00;;;;;;;13.99;100.00;96703.03;5056056;28;20970;-72
2022/07/07 09:56:46;;;;;;;7.20;6.60;;;;;;;13.96;100.00;96710.94;5054854;28;20449;-72
2022/07/07 09:59:15;;;;;;;6.63;5.70;;;;;;;14.13;100.00;96710.63;5035979;28;20445;-71
2022/07/07 10:01:45;;;;;;;6.30;5.80;;;;;;;13.85;100.00;96673.41;5035996;28;20852;-72
2022/07/07 10:04:14;;;;;;;6.67;6.17;;;;;;;13.93;100.00;96693.78;5035972;28;20490;-71
2022/07/07 10:06:42;;;;;;;6.13;5.50;;;;;;;13.90;100.00;96691.81;5035829;28;20869;-71
2022/07/07 10:09:32;;;;;;;5.87;5.40;;;;;;;13.87;100.00;96711.84;5052143;28;21284;-71
2022/07/07 10:11:59;;;;;;;6.13;5.63;;;;;;;13.97;100.00;96715.91;5028679;28;20880;-72
2022/07/07 10:14:33;;;;;;;6.50;5.90;;;;;;;14.00;100.00;96715.22;5053599;28;20460;-71
2022/07/07 10:17:01;;;;;;;7.47;6.80;;;;;;;13.99;100.00;96716.34;5035350;28;20473;-72
2022/07/07 10:19:28;;;;;;;6.53;5.97;;;;;;;14.03;100.00;96716.47;5068795;28;21030;-72
2022/07/07 10:21:57;;;;;;;6.07;5.57;;;;;;;14.16;100.00;96720.63;5053211;28;20437;-72
2022/07/07 10:24:29;;;;;;;6.50;6.00;;;;;;;14.21;100.00;96715.03;5035799;28;20438;-72
2022/07/07 10:26:58;;;;;;;6.43;5.80;;;;;;;14.22;100.00;96723.78;5035289;28;20457;-72
2022/07/07 10:29:39;;;;;;;12.77;6.03;;;;;;;14.27;100.00;96718.22;5053324;28;20487;-72
2022/07/07 10:32:08;;;;;;;7.70;6.60;;;;;;;14.14;100.00;96726.25;5035674;28;20783;-72
2022/07/07 10:34:39;;;;;;;5.57;5.17;;;;;;;14.33;100.00;96725.63;5053180;28;20935;-72
2022/07/07 10:37:08;;;;;;;6.57;5.97;;;;;;;14.23;100.00;96696.06;5068451;28;20504;-72
2022/07/07 10:39:56;;;;;;;9.87;6.80;;;;;;;14.29;100.00;96726.63;5035266;28;20940;-72
2022/07/07 10:42:49;;;;;;;5.50;5.10;;;;;;;13.98;100.00;96712.13;5035092;28;20434;-72
2022/07/07 10:45:16;;;;;;;6.27;5.77;;;;;;;13.76;100.00;96713.44;5051818;28;20830;-72
2022/07/07 10:47:43;;;;;;;7.10;6.60;;;;;;;13.86;100.00;96720.16;5034867;28;20457;-71
2022/07/07 10:50:24;;;;;;;7.00;6.50;;;;;;;13.70;100.00;96688.19;5051581;28;20433;-72
2022/07/07 10:52:51;;;;;;;7.60;6.87;;;;;;;13.81;100.00;96715.09;5035039;28;20860;-72
2022/07/07 10:56:07;;;;;;;6.87;6.27;;;;;;;13.67;100.00;96715.44;5038025;28;20944;-72
2022/07/07 10:58:59;;;;;;;7.70;7.00;;;;;;;13.82;100.00;96706.75;5006828;28;20984;-73
2022/07/07 11:01:29;;;;;;;6.57;5.93;;;;;;;13.84;100.00;96701.09;5051360;28;20854;-74
2022/07/07 11:03:56;;;;;;;6.40;5.80;;;;;;;13.86;100.00;96712.16;5034704;28;20441;-72
2022/07/07 11:06:23;;;;;;;6.93;6.30;;;;;;;13.64;100.00;96694.09;5034988;28;20786;-72
2022/07/07 11:08:59;;;;;;;6.77;6.00;;;;;;;13.50;100.00;96697.91;5034273;28;20469;-72
2022/07/07 11:11:26;;;;;;;7.80;6.70;;;;;;;13.39;100.00;96666.81;5052547;28;20421;-72
2022/07/07 11:14:07;;;;;;;8.37;7.57;;;;;;;13.59;100.00;96709.16;5052431;28;20512;-75
2022/07/07 11:16:34;;;;;;;7.23;6.73;;;;;;;13.41;100.00;96702.56;5067656;28;20523;-72
2022/07/07 11:19:04;;;;;;;8.20;7.60;;;;;;;13.48;100.00;96686.81;5052347;28;20987;-72
2022/07/07 11:21:45;;;;;;;8.33;7.23;;;;;;;13.51;100.00;96696.78;5034732;28;20425;-72
2022/07/07 11:24:19;;;;;;;8.40;7.63;;;;;;;13.69;100.00;96699.94;5034431;28;20434;-72
2022/07/07 11:26:57;;;;;;;9.57;8.77;;;;;;;13.62;100.00;96673.16;5034284;28;20499;-72
2022/07/07 11:29:24;;;;;;;9.10;7.60;;;;;;;13.74;100.00;96678.44;5034610;28;20909;-72
2022/07/07 11:32:09;;;;;;;7.93;7.07;;;;;;;14.01;100.00;96705.38;5034166;28;20953;-72
2022/07/07 11:34:50;;;;;;;8.90;8.10;;;;;;;13.78;100.00;96678.56;5035021;28;20451;-72
2022/07/07 11:37:18;;;;;;;8.37;7.67;;;;;;;14.01;100.00;96702.69;5034708;28;20461;-72
2022/07/07 11:39:45;;;;;;;8.43;7.67;;;;;;;14.08;100.00;96709.00;5028228;28;20979;-72
2022/07/07 11:42:11;;;;;;;8.40;7.70;;;;;;;13.99;100.00;96681.78;5050337;28;20484;-72